7NC0 weather

Carova Beach Volunteer Fire and Rescue Heliport
Corolla, North Carolina, United States

Public forecast

Using degrees Fahrenheit for public forecast. Weather courtesy of forecast.io.

METAR (pilot weather report)

Closest report is Currituck County Regional Airport, 10.2 nm (18.8 km) SW. Retrieved 2019/04/18 13:40 UTC (20 minutes ago):

KONX 181340Z AUTO 10SM CLR 20/14 A3009 RMK AO2 T02030136

TAF (pilot weather forecast)

Forecast is more than 12 hours old.

Closest forecast is Oceana Naval Air Station, 20.0 nm (37.0 km) NNW. Retrieved 2014/02/21 23:36 UTC (5 years ago):

TAF COR KNTU 202300Z 2023/2123 18014KT 9999 SCT010 SCT030 BKN150 BKN200 641408 QNH3001INS BECMG 2104/2106 20015G20KT 8000 BR BKN020 OVC040 600000 QNH2993INS TEMPO 2107/2112 1600 BR BKN010 OVC030 BECMG 2112/2114 18023G28KT 4800 -SHRA BR BKN010 OVC020 QNH2984INS TEMPO 2118/2123 20028G35KT 1600 TSRA BR OVC005 TX12/2110Z TN15/2119Z TAF COR 0215 FN20008